createdAt,value
2022-12-27T00:01:09.974Z,100.00
2022-12-27T00:03:37.534Z,100.00
2022-12-27T00:06:07.346Z,100.00
2022-12-27T00:08:34.841Z,100.00
2022-12-27T00:11:05.656Z,100.00
2022-12-27T00:13:33.180Z,100.00
2022-12-27T00:16:04.873Z,100.00
2022-12-27T00:18:32.459Z,100.00
2022-12-27T00:21:00.380Z,100.00
2022-12-27T00:23:27.916Z,100.00
2022-12-27T00:26:00.603Z,100.00
2022-12-27T00:28:30.278Z,100.00
2022-12-27T00:30:57.903Z,100.00
2022-12-27T00:33:27.242Z,100.00
2022-12-27T00:35:54.713Z,100.00
2022-12-27T00:38:22.269Z,100.00
2022-12-27T00:40:49.809Z,100.00
2022-12-27T00:43:17.402Z,100.00
2022-12-27T00:45:45.020Z,100.00
2022-12-27T00:48:12.638Z,100.00
2022-12-27T00:50:42.219Z,100.00
2022-12-27T00:53:09.810Z,100.00
2022-12-27T00:55:37.339Z,100.00
2022-12-27T00:58:04.893Z,100.00
2022-12-27T01:00:32.422Z,100.00
2022-12-27T01:02:59.917Z,100.00
2022-12-27T01:05:27.453Z,100.00
2022-12-27T01:07:56.556Z,100.00
2022-12-27T01:10:24.073Z,100.00
2022-12-27T01:12:51.639Z,100.00
2022-12-27T01:15:19.197Z,100.00
2022-12-27T01:17:46.743Z,100.00
2022-12-27T01:20:14.212Z,100.00
2022-12-27T01:22:41.750Z,100.00
2022-12-27T01:25:10.819Z,100.00
2022-12-27T01:27:38.323Z,100.00
2022-12-27T01:30:06.095Z,100.00
2022-12-27T01:32:33.635Z,100.00
2022-12-27T01:35:01.196Z,100.00
2022-12-27T01:37:28.910Z,100.00
2022-12-27T01:39:56.473Z,100.00
2022-12-27T01:42:43.010Z,100.00
2022-12-27T01:45:12.468Z,100.00
2022-12-27T01:47:43.350Z,100.00
2022-12-27T01:50:12.531Z,100.00
2022-12-27T01:52:41.130Z,100.00
2022-12-27T01:55:10.654Z,100.00
2022-12-27T01:57:39.548Z,100.00
2022-12-27T02:00:07.657Z,100.00
2022-12-27T02:02:35.268Z,100.00
2022-12-27T02:05:02.947Z,100.00
2022-12-27T02:07:32.304Z,100.00
2022-12-27T02:09:59.762Z,100.00
2022-12-27T02:12:27.339Z,100.00
2022-12-27T02:14:56.207Z,100.00
2022-12-27T02:17:24.135Z,100.00
2022-12-27T02:19:53.646Z,100.00
2022-12-27T02:22:31.581Z,100.00
2022-12-27T02:25:04.725Z,100.00
2022-12-27T02:27:38.256Z,100.00
2022-12-27T02:30:07.395Z,100.00
2022-12-27T02:32:36.074Z,100.00
2022-12-27T02:35:08.581Z,100.00
2022-12-27T02:37:36.892Z,100.00
2022-12-27T02:40:18.596Z,100.00
2022-12-27T02:43:03.727Z,100.00
2022-12-27T02:45:49.834Z,100.00
2022-12-27T02:48:35.116Z,100.00
2022-12-27T02:51:37.007Z,100.00
2022-12-27T02:54:07.423Z,100.00
2022-12-27T02:56:54.029Z,100.00
2022-12-27T02:59:25.114Z,100.00
2022-12-27T03:02:13.632Z,100.00
2022-12-27T03:04:45.963Z,100.00
2022-12-27T03:07:15.829Z,100.00
2022-12-27T03:10:06.947Z,100.00
2022-12-27T03:12:58.883Z,100.00
2022-12-27T03:15:51.316Z,100.00
2022-12-27T03:18:21.751Z,100.00
2022-12-27T03:21:07.154Z,100.00
2022-12-27T03:23:52.028Z,100.00
2022-12-27T03:26:19.507Z,100.00
2022-12-27T03:29:04.442Z,100.00
2022-12-27T03:31:55.615Z,100.00
2022-12-27T03:34:38.218Z,100.00
2022-12-27T03:37:30.630Z,100.00
2022-12-27T03:40:02.624Z,100.00
2022-12-27T03:42:47.755Z,100.00
2022-12-27T03:45:15.259Z,100.00
2022-12-27T03:47:42.885Z,100.00
2022-12-27T03:50:13.103Z,100.00
2022-12-27T03:52:41.638Z,100.00
2022-12-27T03:55:09.247Z,100.00
2022-12-27T03:57:36.747Z,100.00
2022-12-27T04:00:04.927Z,100.00
2022-12-27T04:02:32.637Z,100.00
2022-12-27T04:05:00.342Z,100.00
2022-12-27T04:07:29.208Z,100.00
2022-12-27T04:10:14.033Z,100.00
2022-12-27T04:12:58.901Z,100.00
2022-12-27T04:15:43.912Z,100.00
2022-12-27T04:18:28.987Z,100.00
2022-12-27T04:21:13.983Z,100.00
2022-12-27T04:24:00.124Z,100.00
2022-12-27T04:26:45.041Z,100.00
2022-12-27T04:29:29.830Z,100.00
2022-12-27T04:32:14.513Z,100.00
2022-12-27T04:34:43.488Z,100.00
2022-12-27T04:37:11.646Z,100.00
2022-12-27T04:39:40.558Z,100.00
2022-12-27T04:42:25.488Z,100.00
2022-12-27T04:45:15.070Z,100.00
2022-12-27T04:48:02.970Z,100.00
2022-12-27T04:50:49.363Z,100.00
2022-12-27T04:53:35.334Z,100.00
2022-12-27T04:56:04.461Z,100.00
2022-12-27T04:58:32.055Z,100.00
2022-12-27T05:01:18.438Z,100.00
2022-12-27T05:03:46.457Z,100.00
2022-12-27T05:06:14.007Z,100.00
2022-12-27T05:08:58.895Z,100.00
2022-12-27T05:11:45.671Z,100.00
2022-12-27T05:14:14.695Z,100.00
2022-12-27T05:16:42.786Z,100.00
2022-12-27T05:19:12.608Z,100.00
2022-12-27T05:22:00.939Z,100.00
2022-12-27T05:24:46.164Z,100.00
2022-12-27T05:27:15.002Z,100.00
2022-12-27T05:29:42.489Z,100.00
2022-12-27T05:32:13.322Z,100.00
2022-12-27T05:34:41.330Z,100.00
2022-12-27T05:37:08.815Z,100.00
2022-12-27T05:39:36.378Z,100.00
2022-12-27T05:42:04.232Z,100.00
2022-12-27T05:44:33.166Z,100.00
2022-12-27T05:47:00.780Z,100.00
2022-12-27T05:49:28.259Z,100.00
2022-12-27T05:51:55.883Z,100.00
2022-12-27T05:54:23.378Z,100.00
2022-12-27T05:56:50.911Z,100.00
2022-12-27T05:59:18.384Z,100.00
2022-12-27T06:01:47.446Z,100.00
2022-12-27T06:04:15.119Z,100.00
2022-12-27T06:06:42.681Z,100.00
2022-12-27T06:09:10.357Z,100.00
2022-12-27T06:11:37.813Z,100.00
2022-12-27T06:14:05.319Z,100.00
2022-12-27T06:16:32.906Z,100.00
2022-12-27T06:19:01.752Z,100.00
2022-12-27T06:21:29.315Z,100.00
2022-12-27T06:23:56.892Z,100.00
2022-12-27T06:26:25.143Z,100.00
2022-12-27T06:28:52.685Z,100.00
2022-12-27T06:31:20.632Z,100.00
2022-12-27T06:33:48.320Z,100.00
2022-12-27T06:36:18.231Z,100.00
2022-12-27T06:38:45.809Z,100.00
2022-12-27T06:41:13.998Z,100.00
2022-12-27T06:43:41.573Z,100.00
2022-12-27T06:46:16.870Z,100.00
2022-12-27T06:48:44.940Z,100.00
2022-12-27T06:51:12.970Z,100.00
2022-12-27T06:53:41.883Z,100.00
2022-12-27T06:56:10.531Z,100.00
2022-12-27T06:58:38.178Z,100.00
2022-12-27T07:01:09.343Z,100.00
2022-12-27T07:03:36.915Z,100.00
2022-12-27T07:06:04.966Z,100.00
2022-12-27T07:08:32.570Z,100.00
2022-12-27T07:11:02.208Z,100.00
2022-12-27T07:13:30.591Z,100.00
2022-12-27T07:15:58.053Z,100.00
2022-12-27T07:18:25.530Z,100.00
2022-12-27T07:20:53.041Z,100.00
2022-12-27T07:23:20.547Z,100.00
2022-12-27T07:25:48.037Z,100.00
2022-12-27T07:28:16.896Z,100.00
2022-12-27T07:30:44.432Z,100.00
2022-12-27T07:33:11.951Z,100.00
2022-12-27T07:35:44.854Z,100.00
2022-12-27T07:38:12.641Z,100.00
2022-12-27T07:40:40.083Z,100.00
2022-12-27T07:43:07.532Z,100.00
2022-12-27T07:45:36.435Z,100.00
2022-12-27T07:48:03.937Z,100.00
2022-12-27T07:50:31.591Z,100.00
2022-12-27T07:52:59.139Z,100.00
2022-12-27T07:55:26.721Z,100.00
2022-12-27T07:57:54.262Z,100.00
2022-12-27T08:00:21.753Z,100.00
2022-12-27T08:02:50.680Z,100.00
2022-12-27T08:05:20.383Z,100.00
2022-12-27T08:07:52.163Z,100.00
2022-12-27T08:10:19.749Z,100.00
2022-12-27T08:12:47.281Z,100.00
2022-12-27T08:15:14.873Z,100.00
2022-12-27T08:17:42.556Z,100.00
2022-12-27T08:20:12.269Z,100.00
2022-12-27T08:22:39.799Z,100.00
2022-12-27T08:25:07.808Z,100.00
2022-12-27T08:27:35.316Z,100.00
2022-12-27T08:30:02.843Z,100.00
2022-12-27T08:32:30.331Z,100.00
2022-12-27T08:35:11.968Z,100.00
2022-12-27T08:37:47.079Z,100.00
2022-12-27T08:40:14.588Z,100.00
2022-12-27T08:42:42.104Z,100.00
2022-12-27T08:45:10.105Z,100.00
2022-12-27T08:47:38.248Z,100.00
2022-12-27T08:50:07.395Z,100.00
2022-12-27T08:52:35.296Z,100.00
2022-12-27T08:55:04.749Z,100.00
2022-12-27T08:57:32.252Z,100.00
2022-12-27T08:59:59.738Z,100.00
2022-12-27T09:02:27.309Z,100.00
2022-12-27T09:04:54.832Z,100.00
2022-12-27T09:07:22.350Z,100.00
2022-12-27T09:09:49.868Z,100.00
2022-12-27T09:12:18.701Z,100.00
2022-12-27T09:14:46.213Z,100.00
2022-12-27T09:17:13.894Z,100.00
2022-12-27T09:19:41.408Z,100.00
2022-12-27T09:22:08.894Z,100.00
2022-12-27T09:24:36.459Z,100.00
2022-12-27T09:27:04.282Z,100.00
2022-12-27T09:29:33.192Z,100.00
2022-12-27T09:32:00.721Z,100.00
2022-12-27T09:34:28.205Z,100.00
2022-12-27T09:36:55.846Z,100.00
2022-12-27T09:39:23.310Z,100.00
2022-12-27T09:42:46.008Z,100.00
2022-12-27T09:44:45.049Z,100.00
2022-12-27T09:47:13.590Z,100.00
2022-12-27T09:49:41.408Z,100.00
2022-12-27T09:52:10.979Z,100.00
2022-12-27T09:54:40.095Z,100.00
2022-12-27T09:57:19.915Z,100.00
2022-12-27T09:59:49.889Z,100.00
2022-12-27T10:02:21.443Z,100.00
2022-12-27T10:07:38.030Z,100.00
2022-12-27T10:10:06.346Z,100.00
2022-12-27T10:12:37.952Z,100.00
2022-12-27T10:15:10.059Z,100.00
2022-12-27T10:17:41.226Z,100.00
2022-12-27T10:20:11.551Z,100.00
2022-12-27T10:22:40.804Z,100.00
2022-12-27T10:25:10.849Z,100.00
2022-12-27T10:27:38.413Z,100.00
2022-12-27T10:30:07.462Z,100.00
2022-12-27T10:32:36.353Z,100.00
2022-12-27T10:35:03.934Z,100.00
2022-12-27T10:37:31.446Z,100.00
2022-12-27T10:39:59.142Z,100.00
2022-12-27T10:42:31.935Z,100.00
2022-12-27T10:45:14.338Z,100.00
2022-12-27T10:47:43.234Z,100.00
2022-12-27T10:50:11.993Z,100.00
2022-12-27T10:52:39.479Z,100.00
2022-12-27T10:55:07.222Z,100.00
2022-12-27T10:57:34.919Z,100.00
2022-12-27T11:00:16.493Z,100.00
2022-12-27T11:02:52.069Z,100.00
2022-12-27T11:05:23.324Z,100.00
2022-12-27T11:07:50.790Z,100.00
2022-12-27T11:10:18.798Z,100.00
2022-12-27T11:12:56.046Z,100.00
2022-12-27T11:15:23.539Z,100.00
2022-12-27T11:17:55.312Z,100.00
2022-12-27T11:20:24.754Z,100.00
2022-12-27T11:22:53.145Z,100.00
2022-12-27T11:25:20.689Z,100.00
2022-12-27T11:27:48.347Z,100.00
2022-12-27T11:30:22.720Z,100.00
2022-12-27T11:32:50.219Z,100.00
2022-12-27T11:35:19.431Z,100.00
2022-12-27T11:37:46.911Z,100.00
2022-12-27T11:40:21.877Z,100.00
2022-12-27T11:42:49.935Z,100.00
2022-12-27T11:45:21.602Z,100.00
2022-12-27T11:47:50.475Z,100.00
2022-12-27T11:50:26.239Z,100.00
2022-12-27T11:52:55.419Z,100.00
2022-12-27T11:55:32.832Z,100.00
2022-12-27T11:58:07.406Z,100.00
2022-12-27T12:00:36.792Z,100.00
2022-12-27T12:03:12.670Z,100.00
2022-12-27T12:05:48.579Z,100.00
2022-12-27T12:08:28.761Z,100.00
2022-12-27T12:10:56.929Z,100.00
2022-12-27T12:13:30.561Z,100.00
2022-12-27T12:16:01.867Z,100.00
2022-12-27T12:18:32.228Z,100.00
2022-12-27T12:21:11.160Z,100.00
2022-12-27T12:23:46.248Z,100.00
2022-12-27T12:26:14.774Z,100.00
2022-12-27T12:29:00.135Z,100.00
2022-12-27T12:31:36.123Z,100.00
2022-12-27T12:34:11.099Z,100.00
2022-12-27T12:36:49.162Z,100.00
2022-12-27T12:39:21.647Z,100.00
2022-12-27T12:42:11.339Z,100.00
2022-12-27T12:44:43.804Z,100.00
2022-12-27T12:47:14.786Z,100.00
2022-12-27T12:49:58.881Z,100.00
2022-12-27T12:52:37.098Z,100.00
2022-12-27T12:55:06.752Z,100.00
2022-12-27T12:57:38.897Z,100.00
2022-12-27T13:00:23.143Z,100.00
2022-12-27T13:02:59.332Z,100.00
2022-12-27T13:05:29.356Z,100.00
2022-12-27T13:08:02.963Z,100.00
2022-12-27T13:10:35.749Z,100.00
2022-12-27T13:13:04.726Z,100.00
2022-12-27T13:15:34.452Z,100.00
2022-12-27T13:18:04.552Z,100.00
2022-12-27T13:20:51.987Z,100.00
2022-12-27T13:23:23.934Z,100.00
2022-12-27T13:25:52.595Z,100.00
2022-12-27T13:28:26.647Z,100.00
2022-12-27T13:30:56.470Z,100.00
2022-12-27T13:33:26.022Z,100.00
2022-12-27T13:36:00.910Z,100.00
2022-12-27T13:38:34.787Z,100.00
2022-12-27T13:41:15.878Z,100.00
2022-12-27T13:43:51.637Z,100.00
2022-12-27T13:46:27.032Z,100.00
2022-12-27T13:49:01.775Z,100.00
2022-12-27T13:51:38.596Z,100.00
2022-12-27T13:54:12.714Z,100.00
2022-12-27T13:56:53.863Z,100.00
2022-12-27T13:59:28.327Z,100.00
2022-12-27T14:02:07.975Z,100.00
2022-12-27T14:04:42.112Z,100.00
2022-12-27T14:07:13.927Z,100.00
2022-12-27T14:10:00.440Z,100.00
2022-12-27T14:12:38.022Z,100.00
2022-12-27T14:15:06.635Z,100.00
2022-12-27T14:17:34.665Z,100.00
2022-12-27T14:20:04.706Z,100.00
2022-12-27T14:22:52.494Z,100.00
2022-12-27T14:25:46.987Z,100.00
2022-12-27T14:28:33.430Z,100.00
2022-12-27T14:31:19.671Z,100.00
2022-12-27T14:34:11.199Z,100.00
2022-12-27T14:36:56.324Z,100.00
2022-12-27T14:39:31.993Z,100.00
2022-12-27T14:42:18.100Z,100.00
2022-12-27T14:45:00.512Z,100.00
2022-12-27T14:47:40.111Z,100.00
2022-12-27T14:50:19.803Z,100.00
2022-12-27T14:53:02.058Z,100.00
2022-12-27T14:55:37.480Z,100.00
2022-12-27T14:58:12.328Z,100.00
2022-12-27T15:00:51.221Z,100.00
2022-12-27T15:03:21.634Z,100.00
2022-12-27T15:05:56.649Z,100.00
2022-12-27T15:08:27.862Z,100.00
2022-12-27T15:11:00.845Z,100.00
2022-12-27T15:13:32.428Z,100.00
2022-12-27T15:16:01.156Z,100.00
2022-12-27T15:18:36.936Z,100.00
2022-12-27T15:21:19.338Z,100.00
2022-12-27T15:23:48.804Z,100.00
2022-12-27T15:26:18.735Z,100.00
2022-12-27T15:28:49.407Z,100.00
2022-12-27T15:31:22.736Z,100.00
2022-12-27T15:33:53.191Z,100.00
2022-12-27T15:36:21.438Z,100.00
2022-12-27T15:38:54.169Z,100.00
2022-12-27T15:41:23.925Z,100.00
2022-12-27T15:44:09.727Z,100.00
2022-12-27T15:46:47.636Z,100.00
2022-12-27T15:49:20.115Z,100.00
2022-12-27T15:51:49.036Z,100.00
2022-12-27T15:54:22.244Z,100.00
2022-12-27T15:56:52.719Z,100.00
2022-12-27T15:59:41.349Z,100.00
2022-12-27T16:02:42.283Z,100.00
2022-12-27T16:05:35.265Z,100.00
2022-12-27T16:08:21.300Z,100.00
2022-12-27T16:10:49.879Z,100.00
2022-12-27T16:13:28.556Z,100.00
2022-12-27T16:15:56.688Z,100.00
2022-12-27T16:18:40.208Z,100.00
2022-12-27T16:21:10.447Z,100.00
2022-12-27T16:23:38.380Z,100.00
2022-12-27T16:26:06.458Z,100.00
2022-12-27T16:28:34.409Z,100.00
2022-12-27T16:31:02.105Z,100.00
2022-12-27T16:33:31.532Z,100.00
2022-12-27T16:36:15.976Z,100.00
2022-12-27T16:38:46.070Z,100.00
2022-12-27T16:41:15.145Z,100.00
2022-12-27T16:43:52.251Z,100.00
2022-12-27T16:46:21.715Z,100.00
2022-12-27T16:48:54.518Z,100.00
2022-12-27T16:51:24.104Z,100.00
2022-12-27T16:53:55.876Z,100.00
2022-12-27T16:56:23.968Z,100.00
2022-12-27T16:58:51.590Z,100.00
2022-12-27T17:01:56.681Z,100.00
2022-12-27T17:04:42.751Z,100.00
2022-12-27T17:07:21.853Z,100.00
2022-12-27T17:09:49.383Z,100.00
2022-12-27T17:12:18.932Z,100.00
2022-12-27T17:14:46.440Z,100.00
2022-12-27T17:17:15.914Z,100.00
2022-12-27T17:19:45.229Z,100.00
2022-12-27T17:22:15.369Z,100.00
2022-12-27T17:24:43.243Z,100.00
2022-12-27T17:27:13.055Z,100.00
2022-12-27T17:30:07.793Z,100.00
2022-12-27T17:32:42.003Z,100.00
2022-12-27T17:35:11.113Z,100.00
2022-12-27T17:37:40.927Z,100.00
2022-12-27T17:40:15.575Z,100.00
2022-12-27T17:43:03.238Z,100.00
2022-12-27T17:45:33.933Z,100.00
2022-12-27T17:48:07.115Z,100.00
2022-12-27T17:50:34.660Z,100.00
2022-12-27T17:53:36.842Z,100.00
2022-12-27T17:56:36.943Z,100.00
2022-12-27T17:59:05.713Z,100.00
2022-12-27T18:01:33.891Z,100.00
2022-12-27T18:04:01.439Z,100.00
2022-12-27T18:06:30.522Z,100.00
2022-12-27T18:08:59.370Z,100.00
2022-12-27T18:11:28.217Z,100.00
2022-12-27T18:13:58.897Z,100.00
2022-12-27T18:16:28.193Z,100.00
2022-12-27T18:18:59.771Z,100.00
2022-12-27T18:21:28.318Z,100.00
2022-12-27T18:23:55.915Z,100.00
2022-12-27T18:26:32.715Z,100.00
2022-12-27T18:29:00.200Z,100.00
2022-12-27T18:31:28.058Z,100.00
2022-12-27T18:33:56.292Z,100.00
2022-12-27T18:36:25.163Z,100.00
2022-12-27T18:38:54.010Z,100.00
2022-12-27T18:41:21.851Z,100.00
2022-12-27T18:43:51.436Z,100.00
2022-12-27T18:46:19.391Z,100.00
2022-12-27T18:48:47.003Z,100.00
2022-12-27T18:51:14.517Z,100.00
2022-12-27T18:53:42.098Z,100.00
2022-12-27T18:56:24.245Z,100.00
2022-12-27T18:59:00.988Z,100.00
2022-12-27T19:01:35.758Z,100.00
2022-12-27T19:04:18.221Z,100.00
2022-12-27T19:06:47.112Z,100.00
2022-12-27T19:09:14.718Z,100.00
2022-12-27T19:11:42.237Z,100.00
2022-12-27T19:14:14.171Z,100.00
2022-12-27T19:16:45.611Z,100.00
2022-12-27T19:19:16.173Z,100.00
2022-12-27T19:21:43.643Z,100.00
2022-12-27T19:24:22.125Z,100.00
2022-12-27T19:26:49.639Z,100.00
2022-12-27T19:29:19.000Z,100.00
2022-12-27T19:31:52.209Z,100.00
2022-12-27T19:34:19.701Z,100.00
2022-12-27T19:36:47.266Z,100.00
2022-12-27T19:39:18.352Z,100.00
2022-12-27T19:41:45.842Z,100.00
2022-12-27T19:44:13.381Z,100.00
2022-12-27T19:46:42.248Z,100.00
2022-12-27T19:51:57.346Z,100.00
2022-12-27T19:54:24.984Z,100.00
2022-12-27T19:56:53.052Z,100.00
2022-12-27T19:59:21.219Z,100.00
2022-12-27T20:01:50.342Z,100.00
2022-12-27T20:04:18.417Z,100.00
2022-12-27T20:06:46.297Z,100.00
2022-12-27T20:09:16.555Z,100.00
2022-12-27T20:11:44.050Z,100.00
2022-12-27T20:14:11.521Z,100.00
2022-12-27T20:16:39.081Z,100.00
2022-12-27T20:19:08.060Z,100.00
2022-12-27T20:21:35.553Z,100.00
2022-12-27T20:24:03.322Z,100.00
2022-12-27T20:26:30.852Z,100.00
2022-12-27T20:28:59.536Z,100.00
2022-12-27T20:31:27.184Z,100.00
2022-12-27T20:33:56.058Z,100.00
2022-12-27T20:36:25.175Z,100.00
2022-12-27T20:38:52.648Z,100.00
2022-12-27T20:41:21.301Z,100.00
2022-12-27T20:43:48.761Z,100.00
2022-12-27T20:46:16.705Z,100.00
2022-12-27T20:48:44.853Z,100.00
2022-12-27T20:51:13.126Z,100.00
2022-12-27T20:53:42.294Z,100.00
2022-12-27T20:56:11.031Z,100.00
2022-12-27T20:58:38.510Z,100.00
2022-12-27T21:01:06.760Z,100.00
2022-12-27T21:03:34.434Z,100.00
2022-12-27T21:06:05.661Z,100.00
2022-12-27T21:08:35.057Z,100.00
2022-12-27T21:11:08.673Z,100.00
2022-12-27T21:13:36.902Z,100.00
2022-12-27T21:16:04.591Z,100.00
2022-12-27T21:18:32.360Z,100.00
2022-12-27T21:21:03.014Z,100.00
2022-12-27T21:23:32.087Z,100.00
2022-12-27T21:26:03.478Z,100.00
2022-12-27T21:28:32.359Z,100.00
2022-12-27T21:31:00.070Z,100.00
2022-12-27T21:33:28.393Z,100.00
2022-12-27T21:35:56.776Z,100.00
2022-12-27T21:38:24.363Z,100.00
2022-12-27T21:40:58.325Z,100.00
2022-12-27T21:43:28.673Z,99.28
2022-12-27T21:45:57.945Z,100.00
2022-12-27T21:48:25.654Z,100.00
2022-12-27T21:50:53.178Z,100.00
2022-12-27T21:53:20.855Z,100.00
2022-12-27T21:55:48.430Z,100.00
2022-12-27T21:58:17.021Z,100.00
2022-12-27T22:00:44.578Z,99.68
2022-12-27T22:03:13.557Z,100.00
2022-12-27T22:05:41.180Z,100.00
2022-12-27T22:08:08.767Z,100.00
2022-12-27T22:10:36.279Z,98.59
2022-12-27T22:13:03.831Z,100.00
2022-12-27T22:15:31.313Z,99.76
2022-12-27T22:17:58.873Z,100.00
2022-12-27T22:20:27.747Z,100.00
2022-12-27T22:22:55.233Z,100.00
2022-12-27T22:25:22.682Z,98.30
2022-12-27T22:27:50.172Z,99.16
2022-12-27T22:30:17.772Z,97.85
2022-12-27T22:32:45.260Z,97.78
2022-12-27T22:35:12.813Z,100.00
2022-12-27T22:37:41.699Z,98.46
2022-12-27T22:40:30.862Z,96.29
2022-12-27T22:42:57.289Z,95.32
2022-12-27T22:45:24.830Z,94.28
2022-12-27T22:47:52.451Z,95.28
2022-12-27T22:50:20.046Z,96.46
2022-12-27T22:52:49.053Z,92.83
2022-12-27T22:55:16.606Z,94.83
2022-12-27T22:57:44.151Z,95.12
2022-12-27T23:00:14.272Z,93.49
2022-12-27T23:02:41.917Z,94.12
2022-12-27T23:05:09.640Z,93.50
2022-12-27T23:08:04.220Z,94.20
2022-12-27T23:10:26.352Z,95.20
2022-12-27T23:12:53.843Z,95.97
2022-12-27T23:15:21.318Z,94.66
2022-12-27T23:17:48.815Z,93.77
2022-12-27T23:20:16.364Z,99.77
2022-12-27T23:22:43.858Z,98.63
2022-12-27T23:25:11.378Z,97.34
2022-12-27T23:27:40.254Z,97.65
2022-12-27T23:30:08.174Z,95.21
2022-12-27T23:32:35.653Z,95.24
2022-12-27T23:35:03.158Z,99.56
2022-12-27T23:37:30.662Z,94.09
2022-12-27T23:39:58.216Z,98.57
2022-12-27T23:42:25.722Z,97.71
2022-12-27T23:44:54.758Z,97.89
2022-12-27T23:47:22.289Z,94.83
2022-12-27T23:49:49.726Z,94.69
2022-12-27T23:52:18.503Z,99.11
2022-12-27T23:54:45.959Z,97.58
2022-12-27T23:57:19.978Z,100.00
2022-12-27T23:59:49.350Z,100.00
